茨城空港(百里飛行場)の過去48時間の天気

茨城空港(百里飛行場) (Hyakuri)

現在時刻: 7/23 03:38 JST (7/22 18:38 UTC) 以下の時間は現地時間です。

過去48時間のMETAR気象情報
時間 風向 風速(m/s) 視程 気温(℃) 湿度(%) 気圧(hPa) 天気現象
23 03:00 1 10km以上 26 94 1006
23 02:00 1 10km以上 26 94 1005
23 01:00 北北東 1 10km以上 27 89 1006
23 00:00 不定 1 10km以上 28 79 1006
22 23:00 南東 1 10km以上 29 74 1007
22 22:00 南西 2 10km以上 28 79 1007
22 21:00 西南西 2 10km以上 30 70 1007
22 20:00 南西 3 10km以上 30 75 1007
22 19:00 東南東 2 10km以上 31 59 1006
22 18:00 南東 3 10km以上 32 63 1006
22 17:00 東南東 4 10km以上 33 59 1006
22 16:00 3 10km以上 34 60 1006
22 15:00 西南西 2 10km以上 35 53 1006
22 14:00 南南西 3 10km以上 35 53 1006
22 13:00 南東 2 10km以上 34 50 1007
22 12:00 2 10km以上 32 56 1008
22 11:00 南南西 2 10km以上 32 71 1008
22 10:00 西南西 2 10km以上 31 66 1009
22 09:00 不定 1 10km以上 31 75 1009
22 08:00 静穏 0 10km以上 29 84 1010
22 07:00 不定 1 10km以上 28 89 1010
22 06:00 1 10km以上 26 94 1009
22 05:00 1 10km以上 25 94 1009
22 04:00 不定 1 10km以上 25 100 1009
22 03:00 南南西 1 10km以上 25 94 1008
22 02:00 1 10km以上 26 94 1008
22 01:00 西 1 10km以上 26 89 1009
22 00:00 南西 2 10km以上 26 89 1009
21 23:00 南南西 2 10km以上 27 84 1010
21 22:00 南西 4 10km以上 28 74 1010
21 21:00 南西 4 10km以上 28 79 1010
21 20:00 南南西 4 10km以上 28 74 1010
21 19:00 南西 4 10km以上 29 70 1009
21 18:00 南西 4 10km以上 31 62 1009
21 17:00 南南西 5 10km以上 32 63 1009
21 16:00 南西 5 10km以上 33 56 1008
21 15:00 4 10km以上 34 56 1009
21 14:00 3 10km以上 34 53 1009
21 13:00 3 10km以上 33 63 1010
21 12:00 南南西 2 10km以上 33 59 1010
21 11:00 南西 3 10km以上 32 67 1010
21 10:00 南西 3 10km以上 31 66 1011
21 09:00 西南西 2 10km以上 30 70 1011
21 08:40 南南西 2 10km以上 30 75 1011
21 08:00 3 10km以上 29 79 1011
21 07:07 3 10km以上 28 89 1011
21 07:00 南南西 3 10km以上 28 89 1011
21 06:00 不定 1 10km以上 26 94 1011
21 05:00 不定 1 10km以上 25 94 1011
21 04:00 南南東 1 10km以上 25 94 1010
RJAH 221800Z 10002KT 9999 FEW030 BKN/// 26/25 Q1006
RJAH 221700Z 08002KT 9999 FEW030 BKN/// 26/25 Q1005
RJAH 221600Z 02002KT 9999 FEW030 BKN/// 27/25 Q1006
RJAH 221500Z VRB02KT 9999 FEW030 BKN/// 28/24 Q1006
RJAH 221400Z 14002KT 9999 FEW030 BKN/// 29/24 Q1007
RJAH 221300Z 23003KT 9999 FEW030 SCT060 BKN/// 28/24 Q1007
RJAH 221200Z 25004KT 210V270 9999 FEW030 BKN/// 30/24 Q1007
RJAH 221100Z 23005KT 9999 FEW030 BKN/// 30/25 Q1007
RJAH 221000Z 11003KT 9999 FEW030 BKN230 31/22 Q1006
RJAH 220900Z 13006KT 9999 FEW030 BKN230 32/24 Q1006
RJAH 220800Z 12008KT 080V140 9999 FEW030 BKN230 33/24 Q1006
RJAH 220700Z VRB05KT 9999 FEW030 BKN230 34/25 Q1006
RJAH 220600Z 24003KT 170V340 9999 FEW030 BKN230 35/24 Q1006
RJAH 220500Z 21005KT 140V260 9999 FEW030 BKN230 35/24 Q1006
RJAH 220400Z 14003KT 080V180 9999 FEW030 BKN230 34/22 Q1007
RJAH 220300Z 19004KT 150V240 9999 FEW030 BKN230 32/22 Q1008
RJAH 220200Z 20004KT 140V250 9999 FEW030 BKN230 32/26 Q1008
RJAH 220100Z 25003KT 170V300 9999 FEW030 BKN230 31/24 Q1009
RJAH 220000Z VRB02KT 9999 FEW030 BKN230 31/26 Q1009
RJAH 212300Z 00000KT 9999 FEW030 BKN230 29/26 Q1010
RJAH 212200Z VRB02KT 9999 FEW030 BKN230 28/26 Q1010
RJAH 212100Z 19001KT 9999 FEW030 BKN230 26/25 Q1009
RJAH 212000Z 19002KT 9999 FEW030 SCT230 25/24 Q1009
RJAH 211900Z VRB01KT 9999 FEW030 SCT/// 25/25 Q1009
RJAH 211800Z 21002KT 9999 FEW030 SCT/// 25/24 Q1008
RJAH 211700Z 18002KT 9999 FEW030 SCT/// 26/25 Q1008
RJAH 211600Z 26002KT 9999 FEW030 BKN/// 26/24 Q1009
RJAH 211500Z 22003KT 9999 FEW030 BKN/// 26/24 Q1009
RJAH 211400Z 21004KT 9999 FEW030 BKN/// 27/24 Q1010
RJAH 211300Z 22007KT 9999 FEW030 BKN/// 28/23 Q1010
RJAH 211200Z 22007KT 9999 FEW030 BKN/// 28/24 Q1010
RJAH 211100Z 21007KT 9999 FEW030 BKN/// 28/23 Q1010
RJAH 211000Z 22008KT 9999 FEW030 BKN250 29/23 Q1009
RJAH 210900Z 22007KT 9999 FEW030 BKN250 31/23 Q1009
RJAH 210800Z 21010KT 9999 FEW030 BKN250 32/24 Q1009
RJAH 210700Z 22010KT 9999 FEW030 BKN250 33/23 Q1008
RJAH 210600Z 18008KT 9999 FEW030 BKN230 34/24 Q1009
RJAH 210500Z 18005KT 130V240 9999 FEW030 BKN230 34/23 Q1009
RJAH 210400Z 17005KT 9999 FEW030 BKN230 33/25 Q1010
RJAH 210300Z 20003KT 120V250 9999 FEW020 BKN230 33/24 Q1010
RJAH 210200Z 22006KT 160V270 9999 FEW015 BKN250 32/25 Q1010
RJAH 210100Z 22005KT 170V300 9999 SCT015 BKN250 31/24 Q1011
RJAH 210000Z 24004KT 180V280 9999 FEW010 SCT015 BKN250 30/24 Q1011
RJAH 202340Z 21003KT 140V280 9999 FEW008 BKN015 30/25 Q1011 RMK 1ST008 5CU015 A2986
RJAH 202300Z VRB05KT 9999 FEW008 BKN010 29/25 Q1011
RJAH 202207Z 19005KT 9999 FEW008 BKN010 28/26 Q1011 RMK 1ST008 5CU010 A2987
RJAH 202200Z 21005KT 9999 FEW008 SCT010 28/26 Q1011
RJAH 202100Z VRB01KT 9999 FEW012 26/25 Q1011
RJAH 202000Z VRB01KT 9999 FEW012 25/24 Q1011
RJAH 201900Z 16002KT 9999 FEW015 25/24 Q1010